sensor_id;sensor_type;location;lat;lon;timestamp;pressure;altitude;pressure_sealevel;temperature;humidity
74045;BME280;62389;51.412;5.436;2023-03-15T00:00:54;101132.22;;;2.62;89.65
74045;BME280;62389;51.412;5.436;2023-03-15T00:03:20;101127.06;;;2.58;89.42
74045;BME280;62389;51.412;5.436;2023-03-15T00:05:47;101138.25;;;2.57;89.01
74045;BME280;62389;51.412;5.436;2023-03-15T00:08:13;101125.31;;;2.59;89.04
74045;BME280;62389;51.412;5.436;2023-03-15T00:10:43;101124.44;;;2.63;89.74
74045;BME280;62389;51.412;5.436;2023-03-15T00:13:09;101129.59;;;2.65;89.33
74045;BME280;62389;51.412;5.436;2023-03-15T00:15:35;101124.47;;;2.62;88.91
74045;BME280;62389;51.412;5.436;2023-03-15T00:18:01;101122.75;;;2.62;89.43
74045;BME280;62389;51.412;5.436;2023-03-15T00:20:29;101123.56;;;2.64;89.20
74045;BME280;62389;51.412;5.436;2023-03-15T00:22:55;101113.22;;;2.66;89.11
74045;BME280;62389;51.412;5.436;2023-03-15T00:25:20;101120.13;;;2.67;88.87
74045;BME280;62389;51.412;5.436;2023-03-15T00:27:45;101130.47;;;2.67;88.63
74045;BME280;62389;51.412;5.436;2023-03-15T00:30:11;101129.59;;;2.66;89.03
74045;BME280;62389;51.412;5.436;2023-03-15T00:32:36;101130.47;;;2.67;89.12
74045;BME280;62389;51.412;5.436;2023-03-15T00:35:02;101142.50;;;2.68;89.33
74045;BME280;62389;51.412;5.436;2023-03-15T00:37:29;101145.91;;;2.70;90.06
74045;BME280;62389;51.412;5.436;2023-03-15T00:39:55;101152.78;;;2.74;88.88
74045;BME280;62389;51.412;5.436;2023-03-15T00:42:20;101140.69;;;2.79;88.69
74045;BME280;62389;51.412;5.436;2023-03-15T00:44:46;101148.44;;;2.82;89.72
74045;BME280;62389;51.412;5.436;2023-03-15T00:47:12;101136.34;;;2.87;89.24
74045;BME280;62389;51.412;5.436;2023-03-15T00:49:39;101146.66;;;2.89;88.99
74045;BME280;62389;51.412;5.436;2023-03-15T00:52:05;101139.75;;;2.92;88.68
74045;BME280;62389;51.412;5.436;2023-03-15T00:54:31;101131.97;;;2.95;88.23
74045;BME280;62389;51.412;5.436;2023-03-15T00:57:00;101132.81;;;2.97;88.12
74045;BME280;62389;51.412;5.436;2023-03-15T00:59:31;101131.94;;;2.98;88.40
74045;BME280;62389;51.412;5.436;2023-03-15T01:02:01;101133.66;;;2.99;88.09
74045;BME280;62389;51.412;5.436;2023-03-15T01:04:27;101137.94;;;3.00;88.07
74045;BME280;62389;51.412;5.436;2023-03-15T01:06:52;101133.66;;;2.99;87.65
74045;BME280;62389;51.412;5.436;2023-03-15T01:09:18;101138.88;;;2.90;88.13
74045;BME280;62389;51.412;5.436;2023-03-15T01:11:43;101150.97;;;2.85;88.20
74045;BME280;62389;51.412;5.436;2023-03-15T01:14:08;101148.41;;;2.83;88.43
74045;BME280;62389;51.412;5.436;2023-03-15T01:16:34;101152.72;;;2.80;88.22
74045;BME280;62389;51.412;5.436;2023-03-15T01:18:59;101152.78;;;2.71;88.56
74045;BME280;62389;51.412;5.436;2023-03-15T01:21:25;101155.44;;;2.63;88.55
74045;BME280;62389;51.412;5.436;2023-03-15T01:23:51;101152.84;;;2.65;88.31
74045;BME280;62389;51.412;5.436;2023-03-15T01:26:17;101155.41;;;2.65;88.24
74045;BME280;62389;51.412;5.436;2023-03-15T01:28:43;101169.19;;;2.65;87.99
74045;BME280;62389;51.412;5.436;2023-03-15T01:31:17;101157.19;;;2.61;87.67
74045;BME280;62389;51.412;5.436;2023-03-15T01:33:43;101161.50;;;2.54;89.00
74045;BME280;62389;51.412;5.436;2023-03-15T01:36:09;101172.72;;;2.52;88.98
74045;BME280;62389;51.412;5.436;2023-03-15T01:38:35;101171.03;;;2.48;89.00
74045;BME280;62389;51.412;5.436;2023-03-15T01:41:01;101176.19;;;2.48;88.67
74045;BME280;62389;51.412;5.436;2023-03-15T01:43:28;101182.22;;;2.44;89.39
74045;BME280;62389;51.412;5.436;2023-03-15T01:54:06;101180.53;;;2.41;90.01
74045;BME280;62389;51.412;5.436;2023-03-15T01:56:34;101177.06;;;2.39;90.61
74045;BME280;62389;51.412;5.436;2023-03-15T01:59:03;101174.53;;;2.36;91.02
74045;BME280;62389;51.412;5.436;2023-03-15T02:01:31;101178.81;;;2.37;89.86
74045;BME280;62389;51.412;5.436;2023-03-15T02:04:04;101177.09;;;2.38;90.98
74045;BME280;62389;51.412;5.436;2023-03-15T02:06:30;101183.97;;;2.37;90.63
74045;BME280;62389;51.412;5.436;2023-03-15T02:09:02;101187.41;;;2.38;90.85
74045;BME280;62389;51.412;5.436;2023-03-15T02:11:29;101179.69;;;2.38;91.21
74045;BME280;62389;51.412;5.436;2023-03-15T02:13:55;101192.53;;;2.41;90.42
74045;BME280;62389;51.412;5.436;2023-03-15T02:16:22;101196.03;;;2.38;90.77
74045;BME280;62389;51.412;5.436;2023-03-15T02:18:49;101198.63;;;2.33;91.78
74045;BME280;62389;51.412;5.436;2023-03-15T02:26:54;101229.66;;;2.21;92.42
74045;BME280;62389;51.412;5.436;2023-03-15T02:29:21;101216.75;;;2.14;92.27
74045;BME280;62389;51.412;5.436;2023-03-15T02:31:48;101224.53;;;2.03;92.61
74045;BME280;62389;51.412;5.436;2023-03-15T02:34:13;101217.66;;;1.99;92.24
74045;BME280;62389;51.412;5.436;2023-03-15T02:36:39;101217.69;;;1.87;92.75
74045;BME280;62389;51.412;5.436;2023-03-15T02:39:15;101215.13;;;1.87;92.34
74045;BME280;62389;51.412;5.436;2023-03-15T02:41:44;101216.84;;;1.77;92.29
74045;BME280;62389;51.412;5.436;2023-03-15T02:44:27;101211.66;;;1.75;92.20
74045;BME280;62389;51.412;5.436;2023-03-15T02:46:56;101223.72;;;1.72;92.99
74045;BME280;62389;51.412;5.436;2023-03-15T02:49:27;101233.19;;;1.73;92.77
74045;BME280;62389;51.412;5.436;2023-03-15T02:51:54;101238.34;;;1.67;93.46
74045;BME280;62389;51.412;5.436;2023-03-15T02:54:19;101240.06;;;1.63;93.86
74045;BME280;62389;51.412;5.436;2023-03-15T02:56:45;101236.63;;;1.61;93.60
74045;BME280;62389;51.412;5.436;2023-03-15T02:59:10;101239.19;;;1.60;93.49
74045;BME280;62389;51.412;5.436;2023-03-15T03:01:37;101233.16;;;1.61;92.97
74045;BME280;62389;51.412;5.436;2023-03-15T03:04:02;101246.09;;;1.56;93.39
74045;BME280;62389;51.412;5.436;2023-03-15T03:06:28;101246.94;;;1.57;93.18
74045;BME280;62389;51.412;5.436;2023-03-15T03:08:53;101248.66;;;1.53;93.46
74045;BME280;62389;51.412;5.436;2023-03-15T03:11:19;101258.13;;;1.52;94.38
74045;BME280;62389;51.412;5.436;2023-03-15T03:13:44;101256.38;;;1.54;93.93
74045;BME280;62389;51.412;5.436;2023-03-15T03:16:10;101270.13;;;1.60;93.58
74045;BME280;62389;51.412;5.436;2023-03-15T03:18:36;101270.16;;;1.63;93.30
74045;BME280;62389;51.412;5.436;2023-03-15T03:21:04;101281.31;;;1.65;94.06
74045;BME280;62389;51.412;5.436;2023-03-15T03:23:31;101279.59;;;1.64;94.04
74045;BME280;62389;51.412;5.436;2023-03-15T03:25:58;101283.91;;;1.62;93.90
74045;BME280;62389;51.412;5.436;2023-03-15T03:28:26;101289.06;;;1.62;93.97
74045;BME280;62389;51.412;5.436;2023-03-15T03:30:54;101295.06;;;1.59;93.83
74045;BME280;62389;51.412;5.436;2023-03-15T03:33:21;101285.63;;;1.61;93.79
74045;BME280;62389;51.412;5.436;2023-03-15T03:35:47;101293.34;;;1.63;93.74
74045;BME280;62389;51.412;5.436;2023-03-15T03:38:13;101290.78;;;1.63;93.26
74045;BME280;62389;51.412;5.436;2023-03-15T03:40:39;101301.09;;;1.63;93.30
74045;BME280;62389;51.412;5.436;2023-03-15T03:43:05;101308.81;;;1.60;93.76
74045;BME280;62389;51.412;5.436;2023-03-15T03:45:31;101301.91;;;1.55;93.64
74045;BME280;62389;51.412;5.436;2023-03-15T03:47:56;101304.50;;;1.54;93.70
74045;BME280;62389;51.412;5.436;2023-03-15T03:50:22;101307.09;;;1.52;93.03
74045;BME280;62389;51.412;5.436;2023-03-15T03:52:47;101301.94;;;1.51;93.02
74045;BME280;62389;51.412;5.436;2023-03-15T03:55:12;101305.38;;;1.47;93.05
74045;BME280;62389;51.412;5.436;2023-03-15T03:57:41;101301.06;;;1.41;93.33
74045;BME280;62389;51.412;5.436;2023-03-15T04:00:09;101307.94;;;1.38;93.57
74045;BME280;62389;51.412;5.436;2023-03-15T04:02:35;101319.09;;;1.34;93.86
74045;BME280;62389;51.412;5.436;2023-03-15T04:05:01;101319.09;;;1.31;93.67
74045;BME280;62389;51.412;5.436;2023-03-15T04:07:26;101324.22;;;1.21;94.63
74045;BME280;62389;51.412;5.436;2023-03-15T04:09:52;101334.53;;;1.17;94.23
74045;BME280;62389;51.412;5.436;2023-03-15T04:12:17;101330.22;;;1.11;94.64
74045;BME280;62389;51.412;5.436;2023-03-15T04:14:43;101344.81;;;1.12;93.60
74045;BME280;62389;51.412;5.436;2023-03-15T04:17:08;101337.94;;;1.08;93.93
74045;BME280;62389;51.412;5.436;2023-03-15T04:19:34;101350.78;;;1.05;94.42
74045;BME280;62389;51.412;5.436;2023-03-15T04:22:00;101357.66;;;1.01;94.42
74045;BME280;62389;51.412;5.436;2023-03-15T04:24:32;101350.75;;;0.94;94.88
74045;BME280;62389;51.412;5.436;2023-03-15T04:26:58;101355.06;;;0.91;95.09
74045;BME280;62389;51.412;5.436;2023-03-15T04:29:23;101367.94;;;0.91;94.61
74045;BME280;62389;51.412;5.436;2023-03-15T04:31:49;101362.78;;;0.91;94.39
74045;BME280;62389;51.412;5.436;2023-03-15T04:34:14;101366.22;;;0.91;94.23
74045;BME280;62389;51.412;5.436;2023-03-15T04:36:39;101367.91;;;0.89;94.81
74045;BME280;62389;51.412;5.436;2023-03-15T04:39:06;101372.19;;;0.89;94.77
74045;BME280;62389;51.412;5.436;2023-03-15T04:41:32;101372.19;;;0.89;94.73
74045;BME280;62389;51.412;5.436;2023-03-15T04:44:04;101375.63;;;0.86;94.70
74045;BME280;62389;51.412;5.436;2023-03-15T04:46:31;101378.19;;;0.86;94.90
74045;BME280;62389;51.412;5.436;2023-03-15T04:48:57;101378.19;;;0.86;94.91
74045;BME280;62389;51.412;5.436;2023-03-15T04:51:22;101385.88;;;0.80;95.68
74045;BME280;62389;51.412;5.436;2023-03-15T04:53:48;101381.59;;;0.79;95.02
74045;BME280;62389;51.412;5.436;2023-03-15T04:56:13;101389.31;;;0.77;94.83
74045;BME280;62389;51.412;5.436;2023-03-15T04:58:39;101387.59;;;0.76;95.33
74045;BME280;62389;51.412;5.436;2023-03-15T05:01:04;101386.75;;;0.76;95.24
74045;BME280;62389;51.412;5.436;2023-03-15T05:03:29;101386.75;;;0.76;94.93
74045;BME280;62389;51.412;5.436;2023-03-15T05:05:55;101392.72;;;0.72;95.16
74045;BME280;62389;51.412;5.436;2023-03-15T05:08:20;101393.56;;;0.71;95.17
74045;BME280;62389;51.412;5.436;2023-03-15T05:10:46;101394.44;;;0.71;95.37
74045;BME280;62389;51.412;5.436;2023-03-15T05:13:12;101400.44;;;0.72;95.09
74045;BME280;62389;51.412;5.436;2023-03-15T05:15:37;101400.44;;;0.72;94.89
74045;BME280;62389;51.412;5.436;2023-03-15T05:18:03;101403.00;;;0.70;94.83
74045;BME280;62389;51.412;5.436;2023-03-15T05:20:28;101411.56;;;0.68;94.74
74045;BME280;62389;51.412;5.436;2023-03-15T05:22:53;101411.56;;;0.66;94.80
74045;BME280;62389;51.412;5.436;2023-03-15T05:25:19;101426.13;;;0.63;94.66
74045;BME280;62389;51.412;5.436;2023-03-15T05:27:45;101422.69;;;0.61;95.02
74045;BME280;62389;51.412;5.436;2023-03-15T05:30:11;101425.22;;;0.58;95.10
74045;BME280;62389;51.412;5.436;2023-03-15T05:32:37;101430.38;;;0.59;95.51
74045;BME280;62389;51.412;5.436;2023-03-15T05:35:05;101441.53;;;0.60;95.25
74045;BME280;62389;51.412;5.436;2023-03-15T05:37:31;101440.72;;;0.61;95.33
74045;BME280;62389;51.412;5.436;2023-03-15T05:39:57;101438.13;;;0.61;95.67
74045;BME280;62389;51.412;5.436;2023-03-15T05:42:23;101431.25;;;0.60;95.28
74045;BME280;62389;51.412;5.436;2023-03-15T05:44:52;101441.53;;;0.60;95.34
74045;BME280;62389;51.412;5.436;2023-03-15T05:47:19;101438.13;;;0.61;95.48
74045;BME280;62389;51.412;5.436;2023-03-15T05:49:44;101438.13;;;0.61;95.67
74045;BME280;62389;51.412;5.436;2023-03-15T05:52:10;101448.41;;;0.59;95.34
74045;BME280;62389;51.412;5.436;2023-03-15T05:54:35;101445.81;;;0.58;95.40
74045;BME280;62389;51.412;5.436;2023-03-15T05:57:01;101448.41;;;0.56;95.37
74045;BME280;62389;51.412;5.436;2023-03-15T05:59:26;101442.34;;;0.54;95.12
74045;BME280;62389;51.412;5.436;2023-03-15T06:01:51;101455.22;;;0.52;94.97
74045;BME280;62389;51.412;5.436;2023-03-15T06:04:17;101461.19;;;0.48;94.97
74045;BME280;62389;51.412;5.436;2023-03-15T06:06:42;101468.06;;;0.49;94.74
74045;BME280;62389;51.412;5.436;2023-03-15T06:09:07;101474.09;;;0.51;95.02
74045;BME280;62389;51.412;5.436;2023-03-15T06:11:33;101466.38;;;0.53;94.86
74045;BME280;62389;51.412;5.436;2023-03-15T06:13:58;101474.97;;;0.54;95.29
74045;BME280;62389;51.412;5.436;2023-03-15T06:16:24;101475.88;;;0.57;95.36
74045;BME280;62389;51.412;5.436;2023-03-15T06:18:49;101476.75;;;0.61;95.28
74045;BME280;62389;51.412;5.436;2023-03-15T06:21:15;101475.91;;;0.63;94.68
74045;BME280;62389;51.412;5.436;2023-03-15T06:23:40;101476.78;;;0.65;95.08
74045;BME280;62389;51.412;5.436;2023-03-15T06:26:06;101491.38;;;0.66;94.52
74045;BME280;62389;51.412;5.436;2023-03-15T06:28:31;101496.53;;;0.68;94.74
74045;BME280;62389;51.412;5.436;2023-03-15T06:30:57;101507.69;;;0.70;95.03
74045;BME280;62389;51.412;5.436;2023-03-15T06:33:22;101505.97;;;0.69;94.86
74045;BME280;62389;51.412;5.436;2023-03-15T06:35:48;101518.03;;;0.71;95.19
74045;BME280;62389;51.412;5.436;2023-03-15T06:38:14;101521.50;;;0.78;94.97
74045;BME280;62389;51.412;5.436;2023-03-15T06:40:39;101530.16;;;0.89;95.58
74045;BME280;62389;51.412;5.436;2023-03-15T06:43:06;101535.41;;;1.04;96.05
74045;BME280;62389;51.412;5.436;2023-03-15T06:45:32;101535.50;;;1.18;95.75
74045;BME280;62389;51.412;5.436;2023-03-15T06:47:57;101536.41;;;1.29;95.77
74045;BME280;62389;51.412;5.436;2023-03-15T06:50:23;101543.34;;;1.38;95.62
74045;BME280;62389;51.412;5.436;2023-03-15T06:52:48;101551.13;;;1.47;95.08
74045;BME280;62389;51.412;5.436;2023-03-15T06:55:14;101546.00;;;1.55;94.87
74045;BME280;62389;51.412;5.436;2023-03-15T06:57:43;101557.19;;;1.59;95.51
74045;BME280;62389;51.412;5.436;2023-03-15T07:00:09;101553.78;;;1.61;94.98
74045;BME280;62389;51.412;5.436;2023-03-15T07:02:35;101552.09;;;1.66;94.89
74045;BME280;62389;51.412;5.436;2023-03-15T07:05:02;101563.25;;;1.70;94.83
74045;BME280;62389;51.412;5.436;2023-03-15T07:07:28;101559.84;;;1.71;95.20
74045;BME280;62389;51.412;5.436;2023-03-15T07:09:53;101562.44;;;1.71;95.33
74045;BME280;62389;51.412;5.436;2023-03-15T07:12:18;101567.59;;;1.74;95.86
74045;BME280;62389;51.412;5.436;2023-03-15T07:14:44;101577.91;;;1.80;95.44
74045;BME280;62389;51.412;5.436;2023-03-15T07:17:11;101581.38;;;1.85;95.37
74045;BME280;62389;51.412;5.436;2023-03-15T07:19:36;101584.88;;;1.92;95.53
74045;BME280;62389;51.412;5.436;2023-03-15T07:22:02;101588.31;;;1.97;95.09
74045;BME280;62389;51.412;5.436;2023-03-15T07:24:28;101588.34;;;2.03;95.10
74045;BME280;62389;51.412;5.436;2023-03-15T07:26:53;101602.13;;;2.10;95.43
74045;BME280;62389;51.412;5.436;2023-03-15T07:29:21;101603.88;;;2.17;94.71
74045;BME280;62389;51.412;5.436;2023-03-15T07:31:47;101606.47;;;2.21;95.12
74045;BME280;62389;51.412;5.436;2023-03-15T07:34:12;101616.78;;;2.23;95.00
74045;BME280;62389;51.412;5.436;2023-03-15T07:36:38;101615.94;;;2.27;94.38
74045;BME280;62389;51.412;5.436;2023-03-15T07:39:03;101619.41;;;2.38;94.20
74045;BME280;62389;51.412;5.436;2023-03-15T07:41:29;101628.03;;;2.55;94.94
74045;BME280;62389;51.412;5.436;2023-03-15T07:43:55;101629.81;;;2.69;93.67
74045;BME280;62389;51.412;5.436;2023-03-15T07:46:20;101629.81;;;2.72;93.32
74045;BME280;62389;51.412;5.436;2023-03-15T07:48:46;101632.41;;;2.73;92.35
74045;BME280;62389;51.412;5.436;2023-03-15T07:51:11;101635.84;;;2.78;92.69
74045;BME280;62389;51.412;5.436;2023-03-15T07:53:37;101641.00;;;2.86;91.81
74045;BME280;62389;51.412;5.436;2023-03-15T07:56:03;101648.78;;;2.97;92.60
74045;BME280;62389;51.412;5.436;2023-03-15T07:58:28;101650.53;;;3.11;92.52
74045;BME280;62389;51.412;5.436;2023-03-15T08:00:57;101658.25;;;3.24;91.24
74045;BME280;62389;51.412;5.436;2023-03-15T08:03:25;101659.09;;;3.41;91.18
74045;BME280;62389;51.412;5.436;2023-03-15T08:05:51;101660.81;;;3.59;91.10
74045;BME280;62389;51.412;5.436;2023-03-15T08:08:16;101665.94;;;3.76;89.51
74045;BME280;62389;51.412;5.436;2023-03-15T08:10:43;101669.38;;;3.81;87.04
74045;BME280;62389;51.412;5.436;2023-03-15T08:13:08;101678.84;;;3.89;89.08
74045;BME280;62389;51.412;5.436;2023-03-15T08:15:34;101692.56;;;4.22;89.20
74045;BME280;62389;51.412;5.436;2023-03-15T08:17:59;101692.31;;;4.66;87.91
74045;BME280;62389;51.412;5.436;2023-03-15T08:20:25;101683.34;;;6.10;85.00
74045;BME280;62389;51.412;5.436;2023-03-15T08:22:50;101684.16;;;8.28;76.54
74045;BME280;62389;51.412;5.436;2023-03-15T08:25:20;101678.25;;;9.69;73.35
74045;BME280;62389;51.412;5.436;2023-03-15T08:27:46;101682.97;;;10.50;67.03
74045;BME280;62389;51.412;5.436;2023-03-15T08:30:13;101686.44;;;11.33;60.62
74045;BME280;62389;51.412;5.436;2023-03-15T08:32:39;101686.16;;;12.40;59.78
74045;BME280;62389;51.412;5.436;2023-03-15T08:35:06;101685.63;;;13.62;57.58
74045;BME280;62389;51.412;5.436;2023-03-15T08:37:32;101681.09;;;14.82;54.91
74045;BME280;62389;51.412;5.436;2023-03-15T08:39:58;101682.69;;;16.08;53.40
74045;BME280;62389;51.412;5.436;2023-03-15T08:42:26;101683.91;;;17.13;48.47
74045;BME280;62389;51.412;5.436;2023-03-15T08:44:51;101688.38;;;18.15;44.48
74045;BME280;62389;51.412;5.436;2023-03-15T08:47:17;101690.44;;;18.53;40.39
74045;BME280;62389;51.412;5.436;2023-03-15T08:49:42;101691.44;;;18.79;41.82
74045;BME280;62389;51.412;5.436;2023-03-15T08:52:07;101698.19;;;19.24;39.76
74045;BME280;62389;51.412;5.436;2023-03-15T08:54:33;101700.31;;;19.32;39.31
74045;BME280;62389;51.412;5.436;2023-03-15T08:56:58;101705.75;;;19.03;38.28
74045;BME280;62389;51.412;5.436;2023-03-15T08:59:23;101708.75;;;18.56;38.72
74045;BME280;62389;51.412;5.436;2023-03-15T09:01:49;101710.38;;;18.73;36.83
74045;BME280;62389;51.412;5.436;2023-03-15T09:04:14;101707.81;;;18.57;38.52
74045;BME280;62389;51.412;5.436;2023-03-15T09:06:39;101712.63;;;19.33;40.15
74045;BME280;62389;51.412;5.436;2023-03-15T09:09:06;101719.72;;;20.36;35.99
74045;BME280;62389;51.412;5.436;2023-03-15T09:11:32;101722.41;;;20.73;33.54
74045;BME280;62389;51.412;5.436;2023-03-15T09:13:57;101725.75;;;20.38;35.56
74045;BME280;62389;51.412;5.436;2023-03-15T09:16:22;101723.19;;;20.99;33.57
74045;BME280;62389;51.412;5.436;2023-03-15T09:18:48;101717.38;;;22.10;36.90
74045;BME280;62389;51.412;5.436;2023-03-15T09:21:13;101723.00;;;23.07;32.34
74045;BME280;62389;51.412;5.436;2023-03-15T09:23:38;101719.41;;;23.49;33.79
74045;BME280;62389;51.412;5.436;2023-03-15T09:26:04;101720.84;;;23.74;29.66
74045;BME280;62389;51.412;5.436;2023-03-15T09:28:29;101719.72;;;24.28;30.80
74045;BME280;62389;51.412;5.436;2023-03-15T09:30:54;101725.88;;;25.10;29.67
74045;BME280;62389;51.412;5.436;2023-03-15T09:33:20;101719.72;;;26.04;27.21
74045;BME280;62389;51.412;5.436;2023-03-15T09:35:51;101718.88;;;26.04;24.97
74045;BME280;62389;51.412;5.436;2023-03-15T09:38:17;101731.28;;;23.77;28.60
74045;BME280;62389;51.412;5.436;2023-03-15T09:40:43;101738.75;;;21.16;31.13
74045;BME280;62389;51.412;5.436;2023-03-15T09:43:32;101729.41;;;20.11;38.55
74045;BME280;62389;51.412;5.436;2023-03-15T09:49:11;101736.56;;;17.47;37.52
74045;BME280;62389;51.412;5.436;2023-03-15T09:51:48;101729.84;;;16.14;40.06
74045;BME280;62389;51.412;5.436;2023-03-15T09:54:22;101735.03;;;15.28;40.80
74045;BME280;62389;51.412;5.436;2023-03-15T09:56:57;101732.41;;;15.28;45.54
74045;BME280;62389;51.412;5.436;2023-03-15T09:59:30;101730.66;;;15.81;42.55
74045;BME280;62389;51.412;5.436;2023-03-15T10:01:57;101741.97;;;16.67;41.24
74045;BME280;62389;51.412;5.436;2023-03-15T10:04:32;101745.78;;;15.95;36.29
74045;BME280;62389;51.412;5.436;2023-03-15T10:07:11;101742.63;;;13.82;38.34
74045;BME280;62389;51.412;5.436;2023-03-15T10:09:37;101738.91;;;13.02;43.88
74045;BME280;62389;51.412;5.436;2023-03-15T10:12:43;101738.38;;;12.70;45.74
74045;BME280;62389;51.412;5.436;2023-03-15T10:15:33;101737.25;;;12.54;46.70
74045;BME280;62389;51.412;5.436;2023-03-15T10:21:03;101739.06;;;12.28;46.25
74045;BME280;62389;51.412;5.436;2023-03-15T10:23:45;101741.28;;;12.39;46.59
74045;BME280;62389;51.412;5.436;2023-03-15T10:26:14;101743.25;;;12.09;45.08
74045;BME280;62389;51.412;5.436;2023-03-15T10:28:43;101745.03;;;12.08;45.58
74045;BME280;62389;51.412;5.436;2023-03-15T10:31:12;101743.63;;;12.23;45.79
74045;BME280;62389;51.412;5.436;2023-03-15T10:33:38;101743.88;;;12.40;46.92
74045;BME280;62389;51.412;5.436;2023-03-15T10:36:14;101745.84;;;12.34;47.09
74045;BME280;62389;51.412;5.436;2023-03-15T10:38:42;101742.69;;;12.01;44.19
74045;BME280;62389;51.412;5.436;2023-03-15T10:41:10;101749.69;;;11.74;45.80
74045;BME280;62389;51.412;5.436;2023-03-15T10:43:36;101751.56;;;11.44;44.31
74045;BME280;62389;51.412;5.436;2023-03-15T10:46:10;101753.88;;;10.98;44.77
74045;BME280;62389;51.412;5.436;2023-03-15T10:48:38;101758.06;;;11.04;47.77
74045;BME280;62389;51.412;5.436;2023-03-15T10:51:36;101758.31;;;10.96;46.97
74045;BME280;62389;51.412;5.436;2023-03-15T10:56:43;101767.56;;;10.78;49.39
74045;BME280;62389;51.412;5.436;2023-03-15T10:59:15;101769.72;;;10.94;46.90
74045;BME280;62389;51.412;5.436;2023-03-15T11:01:46;101773.63;;;11.10;49.54
74045;BME280;62389;51.412;5.436;2023-03-15T11:04:23;101771.25;;;11.29;46.05
74045;BME280;62389;51.412;5.436;2023-03-15T11:09:23;101792.34;;;11.24;43.21
74045;BME280;62389;51.412;5.436;2023-03-15T11:12:01;101773.38;;;11.44;44.86
74045;BME280;62389;51.412;5.436;2023-03-15T11:14:41;101782.41;;;11.62;44.95
74045;BME280;62389;51.412;5.436;2023-03-15T11:17:22;101790.19;;;11.65;44.45
74045;BME280;62389;51.412;5.436;2023-03-15T11:19:53;101790.78;;;11.73;47.18
74045;BME280;62389;51.412;5.436;2023-03-15T11:22:20;101793.38;;;11.73;45.85
74045;BME280;62389;51.412;5.436;2023-03-15T11:24:46;101802.97;;;11.74;45.75
74045;BME280;62389;51.412;5.436;2023-03-15T11:27:14;101804.03;;;11.68;41.35
74045;BME280;62389;51.412;5.436;2023-03-15T11:29:45;101800.47;;;11.71;44.95
74045;BME280;62389;51.412;5.436;2023-03-15T11:32:19;101806.41;;;11.76;42.66
74045;BME280;62389;51.412;5.436;2023-03-15T11:35:21;101804.84;;;11.71;43.74
74045;BME280;62389;51.412;5.436;2023-03-15T11:37:56;101801.88;;;11.81;43.31
74045;BME280;62389;51.412;5.436;2023-03-15T11:40:46;101798.78;;;11.68;43.12
74045;BME280;62389;51.412;5.436;2023-03-15T11:43:28;101800.34;;;11.74;41.34
74045;BME280;62389;51.412;5.436;2023-03-15T11:46:11;101799.16;;;11.84;40.09
74045;BME280;62389;51.412;5.436;2023-03-15T11:51:09;101794.25;;;11.47;39.79
74045;BME280;62389;51.412;5.436;2023-03-15T11:53:41;101797.28;;;11.33;42.32
74045;BME280;62389;51.412;5.436;2023-03-15T11:56:28;101794.84;;;11.01;42.21
74045;BME280;62389;51.412;5.436;2023-03-15T11:59:19;101794.59;;;10.49;43.93
74045;BME280;62389;51.412;5.436;2023-03-15T12:01:59;101779.75;;;10.50;44.23
74045;BME280;62389;51.412;5.436;2023-03-15T12:07:01;101774.69;;;11.03;41.80
74045;BME280;62389;51.412;5.436;2023-03-15T12:11:57;101773.00;;;10.72;42.62
74045;BME280;62389;51.412;5.436;2023-03-15T12:14:28;101768.03;;;10.63;44.19
74045;BME280;62389;51.412;5.436;2023-03-15T12:19:58;101769.66;;;10.67;41.63
74045;BME280;62389;51.412;5.436;2023-03-15T12:22:29;101777.03;;;10.53;43.48
74045;BME280;62389;51.412;5.436;2023-03-15T12:25:06;101772.34;;;10.34;45.28
74045;BME280;62389;51.412;5.436;2023-03-15T12:27:34;101775.28;;;10.21;45.03
74045;BME280;62389;51.412;5.436;2023-03-15T12:30:01;101770.72;;;10.30;46.65
74045;BME280;62389;51.412;5.436;2023-03-15T12:32:28;101765.22;;;10.40;43.08
74045;BME280;62389;51.412;5.436;2023-03-15T12:34:56;101766.03;;;10.42;45.41
74045;BME280;62389;51.412;5.436;2023-03-15T12:37:39;101766.22;;;10.34;42.67
74045;BME280;62389;51.412;5.436;2023-03-15T12:56:39;101773.31;;;10.91;41.88
74045;BME280;62389;51.412;5.436;2023-03-15T13:02:35;101787.09;;;11.79;40.57
74045;BME280;62389;51.412;5.436;2023-03-15T13:08:06;101774.78;;;12.07;40.21
74045;BME280;62389;51.412;5.436;2023-03-15T13:15:57;101768.41;;;11.63;40.54
74045;BME280;62389;51.412;5.436;2023-03-15T13:18:26;101765.41;;;11.74;44.25
74045;BME280;62389;51.412;5.436;2023-03-15T13:21:10;101775.81;;;11.77;39.63
74045;BME280;62389;51.412;5.436;2023-03-15T13:23:38;101765.56;;;11.69;40.23
74045;BME280;62389;51.412;5.436;2023-03-15T13:28:37;101774.56;;;11.35;39.57
74045;BME280;62389;51.412;5.436;2023-03-15T13:31:11;101764.38;;;11.53;40.53
74045;BME280;62389;51.412;5.436;2023-03-15T13:33:38;101765.06;;;11.58;39.67
74045;BME280;62389;51.412;5.436;2023-03-15T13:36:11;101769.03;;;11.45;41.01
74045;BME280;62389;51.412;5.436;2023-03-15T13:38:41;101762.03;;;11.44;39.26
74045;BME280;62389;51.412;5.436;2023-03-15T13:41:24;101761.88;;;11.50;40.95
74045;BME280;62389;51.412;5.436;2023-03-15T13:43:52;101767.59;;;11.61;40.73
74045;BME280;62389;51.412;5.436;2023-03-15T13:46:20;101770.88;;;11.67;41.54
74045;BME280;62389;51.412;5.436;2023-03-15T13:48:47;101767.25;;;11.72;39.98
74045;BME280;62389;51.412;5.436;2023-03-15T13:53:48;101767.22;;;11.19;39.08
74045;BME280;62389;51.412;5.436;2023-03-15T13:56:25;101763.41;;;11.01;40.21
74045;BME280;62389;51.412;5.436;2023-03-15T13:58:51;101768.41;;;10.79;42.71
74045;BME280;62389;51.412;5.436;2023-03-15T14:01:17;101774.25;;;10.59;39.72
74045;BME280;62389;51.412;5.436;2023-03-15T14:03:48;101773.03;;;10.41;41.38
74045;BME280;62389;51.412;5.436;2023-03-15T14:06:21;101771.25;;;10.42;46.45
74045;BME280;62389;51.412;5.436;2023-03-15T14:08:48;101773.66;;;10.49;39.58
74045;BME280;62389;51.412;5.436;2023-03-15T14:11:20;101768.84;;;10.65;40.32